createdAt,value
2022-10-11T00:00:12.267Z,20.20
2022-10-11T00:02:39.351Z,20.05
2022-10-11T00:05:07.923Z,19.27
2022-10-11T00:07:36.547Z,21.23
2022-10-11T00:10:05.987Z,18.67
2022-10-11T00:12:34.623Z,21.80
2022-10-11T00:15:02.041Z,20.02
2022-10-11T00:17:29.437Z,20.80
2022-10-11T00:19:56.622Z,20.10
2022-10-11T00:22:23.820Z,21.58
2022-10-11T00:24:52.624Z,21.17
2022-10-11T00:27:19.844Z,19.02
2022-10-11T00:29:46.926Z,20.52
2022-10-11T00:32:14.039Z,21.02
2022-10-11T00:34:41.261Z,20.45
2022-10-11T00:37:08.395Z,20.10
2022-10-11T00:39:35.535Z,19.80
2022-10-11T00:42:02.863Z,19.90
2022-10-11T00:44:32.926Z,20.75
2022-10-11T00:47:03.401Z,20.65
2022-10-11T00:49:34.947Z,20.50
2022-10-11T00:52:07.356Z,20.77
2022-10-11T00:54:39.110Z,19.85
2022-10-11T00:57:12.078Z,21.75
2022-10-11T00:59:45.247Z,20.45
2022-10-11T01:02:13.294Z,19.35
2022-10-11T01:04:41.744Z,21.40
2022-10-11T01:07:09.858Z,19.13
2022-10-11T01:09:37.366Z,21.75
2022-10-11T01:12:12.066Z,21.95
2022-10-11T01:15:03.678Z,21.25
2022-10-11T01:17:59.400Z,20.98
2022-10-11T01:20:38.324Z,20.70
2022-10-11T01:23:42.765Z,21.25
2022-10-11T01:29:17.018Z,20.02
2022-10-11T01:31:51.994Z,21.92
2022-10-11T01:34:40.287Z,20.98
2022-10-11T01:37:33.115Z,21.77
2022-10-11T01:40:12.705Z,21.83
2022-10-11T01:42:42.282Z,22.50
2022-10-11T01:45:13.943Z,21.95
2022-10-11T01:47:42.535Z,22.60
2022-10-11T01:50:34.452Z,21.80
2022-10-11T01:53:15.307Z,24.05
2022-10-11T01:56:07.243Z,22.80
2022-10-11T01:59:12.139Z,23.75
2022-10-11T02:02:02.205Z,23.67
2022-10-11T02:04:38.090Z,23.33
2022-10-11T02:07:19.510Z,21.95
2022-10-11T02:10:11.724Z,22.90
2022-10-11T02:12:47.398Z,22.60
2022-10-11T02:15:17.268Z,24.63
2022-10-11T02:17:49.217Z,24.25
2022-10-11T02:20:21.271Z,25.27
2022-10-11T02:22:53.346Z,25.02
2022-10-11T02:25:25.186Z,24.58
2022-10-11T02:27:57.229Z,22.80
2022-10-11T02:30:24.378Z,23.88
2022-10-11T02:32:53.848Z,24.65
2022-10-11T02:35:25.135Z,23.73
2022-10-11T02:38:22.833Z,25.50
2022-10-11T02:41:11.658Z,25.77
2022-10-11T02:43:45.359Z,30.23
2022-10-11T02:48:40.068Z,26.65
2022-10-11T02:51:13.247Z,26.90
2022-10-11T02:53:40.417Z,25.70
2022-10-11T02:56:08.146Z,26.65
2022-10-11T02:58:35.969Z,28.67
2022-10-11T03:01:03.083Z,26.67
2022-10-11T03:03:30.178Z,26.63
2022-10-11T03:06:02.393Z,27.33
2022-10-11T03:08:30.231Z,25.23
2022-10-11T03:10:57.452Z,26.90
2022-10-11T03:13:24.674Z,26.13
2022-10-11T03:16:02.920Z,27.20
2022-10-11T03:18:31.478Z,26.20
2022-10-11T03:20:58.696Z,26.02
2022-10-11T03:23:25.819Z,30.33
2022-10-11T03:25:52.963Z,28.35
2022-10-11T03:28:20.645Z,27.30
2022-10-11T03:30:51.435Z,26.88
2022-10-11T03:33:19.190Z,28.10
2022-10-11T03:35:47.636Z,28.08
2022-10-11T03:38:17.645Z,25.95
2022-10-11T03:40:44.746Z,29.45
2022-10-11T03:43:11.871Z,27.35
2022-10-11T03:45:39.654Z,28.63
2022-10-11T03:48:06.779Z,27.75
2022-10-11T03:50:33.972Z,29.13
2022-10-11T03:53:01.114Z,29.67
2022-10-11T03:55:28.214Z,30.38
2022-10-11T03:57:55.308Z,31.08
2022-10-11T04:00:22.643Z,31.15
2022-10-11T04:02:49.802Z,31.38
2022-10-11T04:05:17.156Z,32.60
2022-10-11T04:07:44.318Z,27.98
2022-10-11T04:10:11.445Z,30.63
2022-10-11T04:12:39.129Z,31.63
2022-10-11T04:15:07.322Z,34.88
2022-10-11T04:17:34.417Z,31.75
2022-10-11T04:20:01.573Z,33.60
2022-10-11T04:22:28.760Z,35.47
2022-10-11T04:24:55.850Z,36.75
2022-10-11T04:27:22.986Z,35.42
2022-10-11T04:29:50.137Z,33.60
2022-10-11T04:32:17.243Z,35.20
2022-10-11T04:34:44.407Z,32.38
2022-10-11T04:37:11.839Z,36.97
2022-10-11T04:39:39.033Z,34.25
2022-10-11T04:42:06.137Z,34.35
2022-10-11T04:44:33.221Z,34.10
2022-10-11T04:47:00.394Z,35.67
2022-10-11T04:49:27.510Z,34.83
2022-10-11T04:51:54.625Z,35.08
2022-10-11T04:54:22.003Z,35.47
2022-10-11T04:56:49.147Z,35.42
2022-10-11T04:59:16.303Z,34.03
2022-10-11T05:01:43.532Z,35.17
2022-10-11T05:04:10.673Z,37.13
2022-10-11T05:06:37.803Z,35.58
2022-10-11T05:09:04.906Z,35.88
2022-10-11T05:11:32.035Z,35.53
2022-10-11T05:13:59.267Z,34.95
2022-10-11T05:16:26.435Z,33.72
2022-10-11T05:18:53.533Z,34.88
2022-10-11T05:21:26.506Z,34.13
2022-10-11T05:23:55.921Z,36.65
2022-10-11T05:26:25.509Z,36.80
2022-10-11T05:28:52.857Z,34.42
2022-10-11T05:31:20.507Z,33.50
2022-10-11T05:33:47.953Z,33.28
2022-10-11T05:36:15.170Z,36.28
2022-10-11T05:38:42.499Z,36.45
2022-10-11T05:41:14.485Z,35.33
2022-10-11T05:43:42.074Z,35.90
2022-10-11T05:46:09.388Z,37.92
2022-10-11T05:48:36.759Z,35.15
2022-10-11T05:51:07.154Z,35.72
2022-10-11T05:53:34.255Z,33.45
2022-10-11T05:56:01.686Z,36.30
2022-10-11T05:58:29.317Z,33.95
2022-10-11T06:00:57.003Z,36.63
2022-10-11T06:03:24.274Z,33.17
2022-10-11T06:05:56.492Z,32.67
2022-10-11T06:08:24.119Z,33.63
2022-10-11T06:10:51.285Z,30.90
2022-10-11T06:13:18.435Z,31.70
2022-10-11T06:15:45.578Z,33.97
2022-10-11T06:18:12.683Z,32.13
2022-10-11T06:20:39.789Z,34.72
2022-10-11T06:23:06.869Z,31.83
2022-10-11T06:25:33.958Z,30.20
2022-10-11T06:28:01.166Z,30.95
2022-10-11T06:30:28.427Z,29.65
2022-10-11T06:32:55.606Z,30.13
2022-10-11T06:35:22.702Z,29.02
2022-10-11T06:37:50.058Z,29.40
2022-10-11T06:40:17.276Z,29.00
2022-10-11T06:42:48.509Z,33.38
2022-10-11T06:45:15.623Z,28.67
2022-10-11T06:47:42.699Z,27.23
2022-10-11T06:50:09.824Z,26.88
2022-10-11T06:52:36.947Z,26.40
2022-10-11T06:55:04.331Z,27.77
2022-10-11T06:57:31.408Z,28.30
2022-10-11T06:59:58.477Z,27.85
2022-10-11T07:02:25.629Z,28.50
2022-10-11T07:04:52.750Z,28.25
2022-10-11T07:07:19.877Z,27.13
2022-10-11T07:09:47.295Z,28.33
2022-10-11T07:12:14.462Z,27.05
2022-10-11T07:14:41.584Z,27.13
2022-10-11T07:17:08.737Z,28.90
2022-10-11T07:19:35.829Z,28.58
2022-10-11T07:22:02.924Z,27.05
2022-10-11T07:24:30.000Z,28.50
2022-10-11T07:26:57.419Z,28.00
2022-10-11T07:29:24.517Z,27.05
2022-10-11T07:31:51.728Z,25.27
2022-10-11T07:34:20.595Z,24.83
2022-10-11T07:36:47.734Z,27.20
2022-10-11T07:39:15.781Z,23.75
2022-10-11T07:41:45.829Z,22.50
2022-10-11T07:44:14.696Z,23.60
2022-10-11T07:46:41.911Z,21.17
2022-10-11T07:49:09.038Z,22.67
2022-10-11T07:51:36.199Z,23.65
2022-10-11T07:54:07.252Z,20.63
2022-10-11T07:56:35.000Z,22.75
2022-10-11T07:59:05.151Z,21.65
2022-10-11T08:01:32.943Z,21.77
2022-10-11T08:04:00.171Z,22.42
2022-10-11T08:06:31.623Z,21.77
2022-10-11T08:09:00.957Z,21.25
2022-10-11T08:11:31.127Z,21.83
2022-10-11T08:14:00.246Z,24.05
2022-10-11T08:16:27.506Z,23.55
2022-10-11T08:18:56.719Z,23.95
2022-10-11T08:21:24.665Z,22.50
2022-10-11T08:23:51.752Z,22.63
2022-10-11T08:26:18.891Z,21.67
2022-10-11T08:28:46.491Z,23.75
2022-10-11T08:31:15.049Z,22.20
2022-10-11T08:33:43.091Z,21.52
2022-10-11T08:36:11.417Z,20.17
2022-10-11T08:38:39.836Z,20.73
2022-10-11T08:41:20.479Z,18.13
2022-10-11T08:43:56.425Z,19.98
2022-10-11T08:46:30.926Z,19.77
2022-10-11T08:48:59.911Z,18.65
2022-10-11T08:51:31.430Z,19.98
2022-10-11T08:56:41.799Z,19.10
2022-10-11T08:59:11.619Z,20.30
2022-10-11T09:01:45.493Z,18.67
2022-10-11T09:04:17.830Z,17.25
2022-10-11T09:07:11.019Z,18.90
2022-10-11T09:10:16.338Z,19.77
2022-10-11T09:12:55.544Z,17.77
2022-10-11T09:15:25.473Z,18.63
2022-10-11T09:17:52.491Z,19.00
2022-10-11T09:20:53.033Z,19.48
2022-10-11T09:23:38.915Z,18.02
2022-10-11T09:26:21.341Z,19.45
2022-10-11T09:29:39.071Z,20.77
2022-10-11T09:32:15.210Z,17.88
2022-10-11T09:34:42.858Z,19.27
2022-10-11T09:37:21.518Z,18.63
2022-10-11T09:40:14.812Z,20.23
2022-10-11T09:42:41.896Z,18.13
2022-10-11T09:45:19.332Z,18.67
2022-10-11T09:47:46.915Z,18.40
2022-10-11T09:50:21.591Z,18.23
2022-10-11T09:52:59.875Z,19.23
2022-10-11T09:55:53.010Z,18.08
2022-10-11T09:58:28.725Z,17.65
2022-10-11T10:01:08.008Z,18.60
2022-10-11T10:03:38.207Z,19.13
2022-10-11T10:06:17.125Z,19.40
2022-10-11T10:08:47.027Z,19.15
2022-10-11T10:11:15.105Z,18.80
2022-10-11T10:13:51.965Z,17.85
2022-10-11T10:16:33.898Z,17.98
2022-10-11T10:19:07.438Z,19.00
2022-10-11T10:21:44.683Z,17.80
2022-10-11T10:24:30.476Z,18.00
2022-10-11T10:27:21.146Z,17.60
2022-10-11T10:30:10.118Z,15.18
2022-10-11T10:32:49.628Z,17.42
2022-10-11T10:35:58.055Z,17.50
2022-10-11T10:38:34.283Z,16.35
2022-10-11T10:41:04.759Z,17.02
2022-10-11T10:43:38.043Z,18.27
2022-10-11T10:51:48.246Z,17.20
2022-10-11T10:54:38.293Z,16.75
2022-10-11T10:57:29.099Z,15.07
2022-10-11T11:00:19.454Z,15.07
2022-10-11T11:02:49.428Z,14.40
2022-10-11T11:05:27.289Z,15.27
2022-10-11T11:08:48.365Z,15.98
2022-10-11T11:11:27.355Z,14.82
2022-10-11T11:14:00.478Z,15.60
2022-10-11T11:19:54.271Z,16.83
2022-10-11T11:22:42.859Z,18.02
2022-10-11T11:25:12.839Z,17.27
2022-10-11T11:27:57.897Z,17.70
2022-10-11T11:30:42.631Z,17.13
2022-10-11T11:33:15.119Z,17.65
2022-10-11T11:36:13.806Z,17.52
2022-10-11T11:38:59.854Z,18.13
2022-10-11T11:41:55.740Z,19.17
2022-10-11T11:44:35.691Z,18.40
2022-10-11T11:47:02.816Z,18.92
2022-10-11T11:49:39.136Z,18.05
2022-10-11T11:52:13.054Z,16.70
2022-10-11T11:55:01.450Z,17.33
2022-10-11T11:58:06.788Z,15.25
2022-10-11T12:01:07.369Z,15.50
2022-10-11T12:03:42.047Z,13.85
2022-10-11T12:06:12.278Z,14.25
2022-10-11T12:08:42.365Z,16.38
2022-10-11T12:11:20.799Z,15.25
2022-10-11T12:13:50.778Z,14.55
2022-10-11T12:16:19.057Z,14.98
2022-10-11T12:18:48.219Z,15.43
2022-10-11T12:21:38.750Z,12.65
2022-10-11T12:24:20.814Z,12.15
2022-10-11T12:26:55.531Z,11.77
2022-10-11T12:29:28.512Z,14.23
2022-10-11T12:31:58.763Z,10.23
2022-10-11T12:34:37.868Z,10.35
2022-10-11T12:37:20.110Z,12.13
2022-10-11T12:39:58.064Z,11.00
2022-10-11T12:42:36.778Z,10.75
2022-10-11T12:45:13.096Z,11.32
2022-10-11T12:47:48.090Z,10.45
2022-10-11T12:50:17.649Z,9.43
2022-10-11T12:53:21.926Z,10.07
2022-10-11T12:56:09.749Z,11.30
2022-10-11T12:58:41.325Z,10.95
2022-10-11T13:01:12.908Z,11.70
2022-10-11T13:03:43.129Z,12.05
2022-10-11T13:06:26.359Z,11.98
2022-10-11T13:09:35.124Z,11.35
2022-10-11T13:12:19.374Z,9.80
2022-10-11T13:15:07.044Z,11.32
2022-10-11T13:17:38.663Z,11.63
2022-10-11T13:20:18.127Z,11.50
2022-10-11T13:22:52.107Z,10.57
2022-10-11T13:25:28.497Z,10.65
2022-10-11T13:27:59.445Z,10.70
2022-10-11T13:30:30.669Z,11.68
2022-10-11T13:32:59.418Z,12.05
2022-10-11T13:35:36.203Z,10.73
2022-10-11T13:38:07.327Z,8.63
2022-10-11T13:40:35.522Z,9.30
2022-10-11T13:43:05.528Z,10.00
2022-10-11T13:45:35.793Z,9.52
2022-10-11T13:48:03.161Z,9.63
2022-10-11T13:50:34.280Z,8.25
2022-10-11T13:53:09.337Z,9.45
2022-10-11T13:55:49.814Z,9.55
2022-10-11T13:58:30.173Z,8.18
2022-10-11T14:01:16.661Z,7.70
2022-10-11T14:03:47.347Z,8.05
2022-10-11T14:06:15.101Z,6.75
2022-10-11T14:08:42.197Z,7.80
2022-10-11T14:11:11.545Z,8.55
2022-10-11T14:13:49.882Z,7.22
2022-10-11T14:16:20.194Z,7.45
2022-10-11T14:18:47.304Z,9.10
2022-10-11T14:21:20.507Z,8.95
2022-10-11T14:23:51.810Z,8.98
2022-10-11T14:26:20.162Z,9.27
2022-10-11T14:28:56.130Z,7.10
2022-10-11T14:31:26.815Z,7.35
2022-10-11T14:33:55.544Z,7.13
2022-10-11T14:36:23.732Z,7.70
2022-10-11T14:38:51.810Z,8.20
2022-10-11T14:41:19.015Z,8.52
2022-10-11T14:43:46.174Z,8.82
2022-10-11T14:46:22.327Z,9.00
2022-10-11T14:48:55.495Z,8.90
2022-10-11T14:51:30.295Z,8.63
2022-10-11T14:53:58.257Z,8.55
2022-10-11T14:56:25.371Z,8.95
2022-10-11T14:58:52.478Z,9.23
2022-10-11T15:01:19.677Z,8.48
2022-10-11T15:03:46.978Z,9.55
2022-10-11T15:06:36.802Z,10.55
2022-10-11T15:09:05.125Z,8.07
2022-10-11T15:11:32.764Z,10.65
2022-10-11T15:13:59.922Z,8.77
2022-10-11T15:16:27.050Z,7.70
2022-10-11T15:18:54.193Z,8.43
2022-10-11T15:21:24.210Z,8.77
2022-10-11T15:23:52.457Z,9.73
2022-10-11T15:26:22.904Z,9.50
2022-10-11T15:28:51.231Z,8.23
2022-10-11T15:31:18.793Z,8.10
2022-10-11T15:33:46.153Z,8.55
2022-10-11T15:36:16.271Z,8.23
2022-10-11T15:38:44.795Z,8.48
2022-10-11T15:41:14.684Z,8.20
2022-10-11T15:43:43.551Z,8.80
2022-10-11T15:46:17.402Z,9.15
2022-10-11T15:48:45.414Z,9.93
2022-10-11T15:51:13.085Z,9.55
2022-10-11T15:53:40.761Z,8.95
2022-10-11T15:56:12.643Z,9.40
2022-10-11T15:58:40.970Z,9.35
2022-10-11T16:01:12.758Z,8.80
2022-10-11T16:03:40.243Z,9.32
2022-10-11T16:06:11.262Z,9.52
2022-10-11T16:08:39.144Z,8.27
2022-10-11T16:11:08.106Z,9.77
2022-10-11T16:13:36.170Z,8.73
2022-10-11T16:16:05.810Z,9.88
2022-10-11T16:18:35.656Z,10.85
2022-10-11T16:21:08.428Z,9.15
2022-10-11T16:23:36.759Z,9.50
2022-10-11T16:26:07.683Z,11.07
2022-10-11T16:28:35.607Z,10.00
2022-10-11T16:31:08.162Z,10.77
2022-10-11T16:33:35.510Z,10.53
2022-10-11T16:36:26.230Z,9.13
2022-10-11T16:38:53.310Z,9.00
2022-10-11T16:41:20.386Z,9.77
2022-10-11T16:43:52.045Z,10.60
2022-10-11T16:46:19.719Z,9.60
2022-10-11T16:48:47.651Z,9.73
2022-10-11T16:51:14.955Z,9.15
2022-10-11T16:53:42.078Z,8.73
2022-10-11T16:56:11.374Z,9.07
2022-10-11T16:58:38.647Z,8.45
2022-10-11T17:01:10.790Z,9.13
2022-10-11T17:03:38.030Z,9.52
2022-10-11T17:06:06.606Z,9.45
2022-10-11T17:08:35.111Z,9.27
2022-10-11T17:11:03.320Z,9.35
2022-10-11T17:13:30.733Z,9.48
2022-10-11T17:15:58.154Z,9.88
2022-10-11T17:18:25.683Z,9.32
2022-10-11T17:21:14.753Z,9.63
2022-10-11T17:23:42.641Z,8.77
2022-10-11T17:26:15.786Z,9.05
2022-10-11T17:28:43.274Z,9.23
2022-10-11T17:31:10.705Z,9.38
2022-10-11T17:33:38.377Z,9.75
2022-10-11T17:36:19.332Z,9.45
2022-10-11T17:38:47.262Z,10.15
2022-10-11T17:41:15.379Z,9.38
2022-10-11T17:43:42.679Z,10.35
2022-10-11T17:46:12.262Z,10.00
2022-10-11T17:48:40.006Z,9.00
2022-10-11T17:51:10.001Z,9.73
2022-10-11T17:53:37.703Z,9.95
2022-10-11T17:56:07.683Z,10.23
2022-10-11T17:58:35.667Z,10.35
2022-10-11T18:01:08.734Z,9.55
2022-10-11T18:03:36.511Z,10.55
2022-10-11T18:06:05.550Z,11.32
2022-10-11T18:08:40.467Z,11.43
2022-10-11T18:11:16.795Z,11.45
2022-10-11T18:13:46.902Z,9.90
2022-10-11T18:16:15.855Z,11.65
2022-10-11T18:18:43.695Z,10.98
2022-10-11T18:21:11.879Z,11.13
2022-10-11T18:23:39.513Z,11.13
2022-10-11T18:26:21.078Z,10.70
2022-10-11T18:28:49.341Z,10.57
2022-10-11T18:31:19.969Z,9.77
2022-10-11T18:33:47.820Z,9.63
2022-10-11T18:36:16.650Z,10.80
2022-10-11T18:38:49.175Z,9.95
2022-10-11T18:41:19.537Z,10.93
2022-10-11T18:43:54.515Z,10.77
2022-10-11T18:46:22.820Z,9.57
2022-10-11T18:48:52.499Z,9.35
2022-10-11T18:51:32.149Z,9.73
2022-10-11T18:54:00.389Z,10.38
2022-10-11T18:56:29.050Z,27.92
2022-10-11T18:58:57.398Z,32.28
2022-10-11T19:01:28.868Z,23.33
2022-10-11T19:03:59.033Z,18.52
2022-10-11T19:06:32.862Z,17.50
2022-10-11T19:09:11.903Z,14.52
2022-10-11T19:11:39.838Z,15.27
2022-10-11T19:14:11.292Z,12.93
2022-10-11T19:16:42.098Z,12.95
2022-10-11T19:19:11.785Z,14.82
2022-10-11T19:21:39.419Z,15.63
2022-10-11T19:24:06.918Z,16.15
2022-10-11T19:26:37.084Z,14.40
2022-10-11T19:29:07.962Z,15.02
2022-10-11T19:31:40.411Z,14.35
2022-10-11T19:34:07.622Z,15.57
2022-10-11T19:36:36.846Z,17.55
2022-10-11T19:39:05.740Z,17.00
2022-10-11T19:41:34.093Z,18.80
2022-10-11T19:44:01.225Z,19.38
2022-10-11T19:49:17.733Z,20.60
2022-10-11T19:51:44.958Z,21.60
2022-10-11T19:54:13.739Z,20.95
2022-10-11T19:56:40.876Z,19.05
2022-10-11T19:59:08.503Z,20.73
2022-10-11T20:01:36.452Z,20.35
2022-10-11T20:04:06.585Z,21.13
2022-10-11T20:06:38.631Z,19.95
2022-10-11T20:09:28.627Z,19.90
2022-10-11T20:11:55.209Z,17.92
2022-10-11T20:14:22.468Z,18.67
2022-10-11T20:16:50.567Z,17.83
2022-10-11T20:19:18.531Z,16.67
2022-10-11T20:21:45.721Z,19.30
2022-10-11T20:24:13.036Z,19.00
2022-10-11T20:26:40.263Z,17.30
2022-10-11T20:29:07.391Z,18.67
2022-10-11T20:31:38.402Z,18.10
2022-10-11T20:34:07.274Z,18.75
2022-10-11T20:36:36.122Z,19.75
2022-10-11T20:39:05.333Z,18.50
2022-10-11T20:41:37.020Z,18.70
2022-10-11T20:44:05.165Z,19.67
2022-10-11T20:46:34.507Z,19.90
2022-10-11T20:49:07.768Z,21.77
2022-10-11T20:51:36.988Z,19.73
2022-10-11T20:54:04.755Z,20.23
2022-10-11T20:56:32.234Z,21.73
2022-10-11T20:58:59.571Z,20.13
2022-10-11T21:01:33.218Z,21.48
2022-10-11T21:06:29.579Z,18.67
2022-10-11T21:08:58.985Z,18.65
2022-10-11T21:11:27.028Z,19.27
2022-10-11T21:13:58.940Z,19.73
2022-10-11T21:16:26.481Z,20.58
2022-10-11T21:18:55.544Z,21.95
2022-10-11T21:21:23.985Z,23.30
2022-10-11T21:23:55.426Z,20.45
2022-10-11T21:26:22.837Z,21.45
2022-10-11T21:28:50.084Z,21.10
2022-10-11T21:31:19.683Z,21.25
2022-10-11T21:33:46.856Z,21.73
2022-10-11T21:36:17.349Z,20.35
2022-10-11T21:38:45.114Z,21.00
2022-10-11T21:41:15.390Z,21.67
2022-10-11T21:43:42.980Z,19.85
2022-10-11T21:46:16.130Z,21.95
2022-10-11T21:48:43.894Z,21.77
2022-10-11T21:51:21.752Z,21.80
2022-10-11T21:53:48.880Z,21.48
2022-10-11T21:56:15.986Z,19.77
2022-10-11T21:58:43.146Z,21.60
2022-10-11T22:01:11.035Z,20.92
2022-10-11T22:03:38.130Z,21.33
2022-10-11T22:06:05.649Z,20.20
2022-10-11T22:08:33.182Z,20.75
2022-10-11T22:11:01.506Z,20.75
2022-10-11T22:13:31.224Z,20.17
2022-10-11T22:16:01.851Z,21.77
2022-10-11T22:18:33.295Z,21.83
2022-10-11T22:21:13.388Z,21.52
2022-10-11T22:23:46.455Z,20.73
2022-10-11T22:26:26.050Z,21.23
2022-10-11T22:28:53.423Z,20.33
2022-10-11T22:31:21.950Z,21.58
2022-10-11T22:33:53.773Z,20.98
2022-10-11T22:36:21.275Z,21.08
2022-10-11T22:38:48.385Z,22.98
2022-10-11T22:41:15.478Z,21.75
2022-10-11T22:43:42.672Z,20.48
2022-10-11T22:46:10.330Z,22.65
2022-10-11T22:48:37.697Z,22.63
2022-10-11T22:51:04.962Z,20.60
2022-10-11T22:53:32.374Z,22.50
2022-10-11T22:55:59.497Z,23.10
2022-10-11T22:58:26.974Z,20.92
2022-10-11T23:00:54.107Z,24.65
2022-10-11T23:03:21.281Z,22.15
2022-10-11T23:05:56.500Z,23.30
2022-10-11T23:08:23.758Z,22.15
2022-10-11T23:10:51.133Z,22.70
2022-10-11T23:13:18.387Z,23.15
2022-10-11T23:15:45.610Z,21.98
2022-10-11T23:18:12.858Z,23.55
2022-10-11T23:20:39.998Z,22.13
2022-10-11T23:23:07.442Z,23.05
2022-10-11T23:25:34.547Z,23.80
2022-10-11T23:28:02.088Z,20.75
2022-10-11T23:30:29.542Z,20.13
2022-10-11T23:32:56.918Z,20.80
2022-10-11T23:35:24.240Z,19.80
2022-10-11T23:37:54.011Z,21.55
2022-10-11T23:40:21.206Z,22.10
2022-10-11T23:42:48.338Z,20.55
2022-10-11T23:45:15.542Z,22.15
2022-10-11T23:47:42.662Z,23.60
2022-10-11T23:50:10.244Z,23.85
2022-10-11T23:52:37.361Z,24.67
2022-10-11T23:55:04.787Z,24.65
2022-10-11T23:57:31.870Z,25.77
2022-10-11T23:59:59.088Z,24.42
